sensor_id;sensor_type;location;lat;lon;timestamp;temperature;humidity
52709;DHT22;38606;52.986;6.980;2022-07-09T00:02:03;17.20;99.90
52709;DHT22;38606;52.986;6.980;2022-07-09T00:04:29;17.40;99.90
52709;DHT22;38606;52.986;6.980;2022-07-09T00:06:55;17.40;99.90
52709;DHT22;38606;52.986;6.980;2022-07-09T00:09:20;16.90;99.90
52709;DHT22;38606;52.986;6.980;2022-07-09T00:11:46;17.20;99.90
52709;DHT22;38606;52.986;6.980;2022-07-09T00:14:12;17.10;99.90
52709;DHT22;38606;52.986;6.980;2022-07-09T00:16:38;17.40;99.90
52709;DHT22;38606;52.986;6.980;2022-07-09T00:19:03;17.30;99.90
52709;DHT22;38606;52.986;6.980;2022-07-09T00:21:29;17.10;99.90
52709;DHT22;38606;52.986;6.980;2022-07-09T00:23:55;17.10;99.90
52709;DHT22;38606;52.986;6.980;2022-07-09T00:26:21;17.10;99.90
52709;DHT22;38606;52.986;6.980;2022-07-09T00:28:47;17.10;99.90
52709;DHT22;38606;52.986;6.980;2022-07-09T00:31:12;17.00;99.90
52709;DHT22;38606;52.986;6.980;2022-07-09T00:33:38;17.10;99.90
52709;DHT22;38606;52.986;6.980;2022-07-09T00:36:04;16.90;99.90
52709;DHT22;38606;52.986;6.980;2022-07-09T00:38:30;17.00;99.90
52709;DHT22;38606;52.986;6.980;2022-07-09T00:40:55;17.30;99.90
52709;DHT22;38606;52.986;6.980;2022-07-09T00:43:22;17.30;99.90
52709;DHT22;38606;52.986;6.980;2022-07-09T00:45:48;17.00;99.90
52709;DHT22;38606;52.986;6.980;2022-07-09T00:48:15;17.00;99.90
52709;DHT22;38606;52.986;6.980;2022-07-09T00:50:42;17.10;99.90
52709;DHT22;38606;52.986;6.980;2022-07-09T00:53:09;17.10;99.90
52709;DHT22;38606;52.986;6.980;2022-07-09T00:55:39;17.10;99.90
52709;DHT22;38606;52.986;6.980;2022-07-09T00:58:06;17.20;99.90
52709;DHT22;38606;52.986;6.980;2022-07-09T01:00:33;17.00;99.90
52709;DHT22;38606;52.986;6.980;2022-07-09T01:03:00;17.10;99.90
52709;DHT22;38606;52.986;6.980;2022-07-09T01:05:26;17.00;99.90
52709;DHT22;38606;52.986;6.980;2022-07-09T01:07:52;17.30;99.90
52709;DHT22;38606;52.986;6.980;2022-07-09T01:10:18;17.20;99.90
52709;DHT22;38606;52.986;6.980;2022-07-09T01:12:44;17.10;99.90
52709;DHT22;38606;52.986;6.980;2022-07-09T01:15:10;17.10;99.90
52709;DHT22;38606;52.986;6.980;2022-07-09T01:17:42;16.90;99.90
52709;DHT22;38606;52.986;6.980;2022-07-09T01:20:08;17.00;99.90
52709;DHT22;38606;52.986;6.980;2022-07-09T01:22:34;16.90;99.90
52709;DHT22;38606;52.986;6.980;2022-07-09T01:25:01;17.10;99.90
52709;DHT22;38606;52.986;6.980;2022-07-09T01:27:30;17.00;99.90
52709;DHT22;38606;52.986;6.980;2022-07-09T01:29:56;17.20;99.90
52709;DHT22;38606;52.986;6.980;2022-07-09T01:32:21;17.00;99.90
52709;DHT22;38606;52.986;6.980;2022-07-09T01:34:47;16.90;99.90
52709;DHT22;38606;52.986;6.980;2022-07-09T01:37:13;16.80;99.90
52709;DHT22;38606;52.986;6.980;2022-07-09T01:39:38;17.00;99.90
52709;DHT22;38606;52.986;6.980;2022-07-09T01:42:19;16.90;99.90
52709;DHT22;38606;52.986;6.980;2022-07-09T01:44:46;16.90;99.90
52709;DHT22;38606;52.986;6.980;2022-07-09T01:47:12;17.10;99.90
52709;DHT22;38606;52.986;6.980;2022-07-09T01:49:40;16.90;99.90
52709;DHT22;38606;52.986;6.980;2022-07-09T01:52:06;16.90;99.90
52709;DHT22;38606;52.986;6.980;2022-07-09T01:54:32;16.90;99.90
52709;DHT22;38606;52.986;6.980;2022-07-09T01:56:58;16.90;99.90
52709;DHT22;38606;52.986;6.980;2022-07-09T01:59:23;17.10;99.90
52709;DHT22;38606;52.986;6.980;2022-07-09T02:01:49;17.00;99.90
52709;DHT22;38606;52.986;6.980;2022-07-09T02:04:15;16.90;99.90
52709;DHT22;38606;52.986;6.980;2022-07-09T02:06:41;16.70;99.90
52709;DHT22;38606;52.986;6.980;2022-07-09T02:09:07;17.10;99.90
52709;DHT22;38606;52.986;6.980;2022-07-09T02:11:32;16.60;99.90
52709;DHT22;38606;52.986;6.980;2022-07-09T02:13:58;16.90;99.90
52709;DHT22;38606;52.986;6.980;2022-07-09T02:16:24;16.90;99.90
52709;DHT22;38606;52.986;6.980;2022-07-09T02:18:50;16.70;99.90
52709;DHT22;38606;52.986;6.980;2022-07-09T02:21:16;17.00;99.90
52709;DHT22;38606;52.986;6.980;2022-07-09T02:23:42;16.90;99.90
52709;DHT22;38606;52.986;6.980;2022-07-09T02:26:07;16.60;99.90
52709;DHT22;38606;52.986;6.980;2022-07-09T02:28:33;16.90;99.90
52709;DHT22;38606;52.986;6.980;2022-07-09T02:30:59;17.00;99.90
52709;DHT22;38606;52.986;6.980;2022-07-09T02:33:25;16.80;99.90
52709;DHT22;38606;52.986;6.980;2022-07-09T02:35:50;16.90;99.90
52709;DHT22;38606;52.986;6.980;2022-07-09T02:38:16;16.90;99.90
52709;DHT22;38606;52.986;6.980;2022-07-09T02:40:42;16.70;99.90
52709;DHT22;38606;52.986;6.980;2022-07-09T02:43:07;16.90;99.90
52709;DHT22;38606;52.986;6.980;2022-07-09T02:45:33;16.80;99.90
52709;DHT22;38606;52.986;6.980;2022-07-09T02:47:59;16.90;99.90
52709;DHT22;38606;52.986;6.980;2022-07-09T02:50:25;16.70;99.90
52709;DHT22;38606;52.986;6.980;2022-07-09T02:52:50;16.70;99.90
52709;DHT22;38606;52.986;6.980;2022-07-09T02:55:16;16.70;99.90
52709;DHT22;38606;52.986;6.980;2022-07-09T02:57:42;16.80;99.90
52709;DHT22;38606;52.986;6.980;2022-07-09T03:00:08;16.60;99.90
52709;DHT22;38606;52.986;6.980;2022-07-09T03:02:33;16.80;99.90
52709;DHT22;38606;52.986;6.980;2022-07-09T03:04:59;16.80;99.90
52709;DHT22;38606;52.986;6.980;2022-07-09T03:07:26;16.90;99.90
52709;DHT22;38606;52.986;6.980;2022-07-09T03:09:52;16.60;99.90
52709;DHT22;38606;52.986;6.980;2022-07-09T03:12:17;16.90;99.90
52709;DHT22;38606;52.986;6.980;2022-07-09T03:14:43;17.00;99.90
52709;DHT22;38606;52.986;6.980;2022-07-09T03:17:09;16.70;99.90
52709;DHT22;38606;52.986;6.980;2022-07-09T03:19:35;16.90;99.90
52709;DHT22;38606;52.986;6.980;2022-07-09T03:22:01;16.80;99.90
52709;DHT22;38606;52.986;6.980;2022-07-09T03:24:26;17.10;99.90
52709;DHT22;38606;52.986;6.980;2022-07-09T03:26:52;17.10;99.90
52709;DHT22;38606;52.986;6.980;2022-07-09T03:29:18;16.70;99.90
52709;DHT22;38606;52.986;6.980;2022-07-09T03:31:43;16.80;99.90
52709;DHT22;38606;52.986;6.980;2022-07-09T03:34:09;17.70;99.90
52709;DHT22;38606;52.986;6.980;2022-07-09T03:36:35;16.80;99.90
52709;DHT22;38606;52.986;6.980;2022-07-09T03:39:01;16.90;99.90
52709;DHT22;38606;52.986;6.980;2022-07-09T03:41:27;17.10;99.90
52709;DHT22;38606;52.986;6.980;2022-07-09T03:43:53;16.70;99.90
52709;DHT22;38606;52.986;6.980;2022-07-09T03:46:18;16.70;99.90
52709;DHT22;38606;52.986;6.980;2022-07-09T03:48:44;16.80;99.90
52709;DHT22;38606;52.986;6.980;2022-07-09T03:51:12;18.00;99.90
52709;DHT22;38606;52.986;6.980;2022-07-09T03:53:37;16.80;99.90
52709;DHT22;38606;52.986;6.980;2022-07-09T03:56:03;16.90;99.90
52709;DHT22;38606;52.986;6.980;2022-07-09T03:58:29;16.80;99.90
52709;DHT22;38606;52.986;6.980;2022-07-09T04:00:55;16.80;99.90
52709;DHT22;38606;52.986;6.980;2022-07-09T04:03:20;16.90;99.90
52709;DHT22;38606;52.986;6.980;2022-07-09T04:05:46;16.70;99.90
52709;DHT22;38606;52.986;6.980;2022-07-09T04:08:13;16.80;99.90
52709;DHT22;38606;52.986;6.980;2022-07-09T04:10:38;16.90;99.90
52709;DHT22;38606;52.986;6.980;2022-07-09T04:13:04;16.70;99.90
52709;DHT22;38606;52.986;6.980;2022-07-09T04:15:30;16.50;99.90
52709;DHT22;38606;52.986;6.980;2022-07-09T04:17:57;16.90;99.90
52709;DHT22;38606;52.986;6.980;2022-07-09T04:20:23;16.90;99.90
52709;DHT22;38606;52.986;6.980;2022-07-09T04:22:51;16.90;99.90
52709;DHT22;38606;52.986;6.980;2022-07-09T04:25:17;17.00;99.90
52709;DHT22;38606;52.986;6.980;2022-07-09T04:27:43;17.00;99.90
52709;DHT22;38606;52.986;6.980;2022-07-09T04:30:09;16.90;99.90
52709;DHT22;38606;52.986;6.980;2022-07-09T04:32:36;16.90;99.90
52709;DHT22;38606;52.986;6.980;2022-07-09T04:35:02;17.00;99.90
52709;DHT22;38606;52.986;6.980;2022-07-09T04:37:28;16.90;99.90
52709;DHT22;38606;52.986;6.980;2022-07-09T04:39:53;16.70;99.90
52709;DHT22;38606;52.986;6.980;2022-07-09T04:42:19;17.10;99.90
52709;DHT22;38606;52.986;6.980;2022-07-09T04:44:46;16.90;99.90
52709;DHT22;38606;52.986;6.980;2022-07-09T04:47:12;17.00;99.90
52709;DHT22;38606;52.986;6.980;2022-07-09T04:49:38;17.20;99.90
52709;DHT22;38606;52.986;6.980;2022-07-09T04:52:05;17.20;99.90
52709;DHT22;38606;52.986;6.980;2022-07-09T04:54:30;17.00;99.90
52709;DHT22;38606;52.986;6.980;2022-07-09T04:56:56;17.10;99.90
52709;DHT22;38606;52.986;6.980;2022-07-09T04:59:22;17.20;99.90
52709;DHT22;38606;52.986;6.980;2022-07-09T05:01:48;17.30;99.90
52709;DHT22;38606;52.986;6.980;2022-07-09T05:04:15;17.20;99.90
52709;DHT22;38606;52.986;6.980;2022-07-09T05:06:41;17.40;99.90
52709;DHT22;38606;52.986;6.980;2022-07-09T05:09:07;17.30;99.90
52709;DHT22;38606;52.986;6.980;2022-07-09T05:11:33;17.30;99.90
52709;DHT22;38606;52.986;6.980;2022-07-09T05:13:59;17.20;99.90
52709;DHT22;38606;52.986;6.980;2022-07-09T05:16:25;17.20;99.90
52709;DHT22;38606;52.986;6.980;2022-07-09T05:18:50;17.20;99.90
52709;DHT22;38606;52.986;6.980;2022-07-09T05:21:16;17.30;99.90
52709;DHT22;38606;52.986;6.980;2022-07-09T05:23:42;17.40;99.90
52709;DHT22;38606;52.986;6.980;2022-07-09T05:26:07;17.40;99.90
52709;DHT22;38606;52.986;6.980;2022-07-09T05:28:33;17.50;99.90
52709;DHT22;38606;52.986;6.980;2022-07-09T05:30:59;17.70;99.90
52709;DHT22;38606;52.986;6.980;2022-07-09T05:33:25;17.40;99.90
52709;DHT22;38606;52.986;6.980;2022-07-09T05:35:50;17.40;99.90
52709;DHT22;38606;52.986;6.980;2022-07-09T05:38:16;17.70;99.90
52709;DHT22;38606;52.986;6.980;2022-07-09T05:40:42;19.70;99.90
52709;DHT22;38606;52.986;6.980;2022-07-09T05:43:08;17.80;99.90
52709;DHT22;38606;52.986;6.980;2022-07-09T05:45:33;17.70;99.90
52709;DHT22;38606;52.986;6.980;2022-07-09T05:47:59;17.70;99.90
52709;DHT22;38606;52.986;6.980;2022-07-09T05:50:25;17.80;99.90
52709;DHT22;38606;52.986;6.980;2022-07-09T05:52:51;18.20;99.90
52709;DHT22;38606;52.986;6.980;2022-07-09T05:55:16;18.10;99.90
52709;DHT22;38606;52.986;6.980;2022-07-09T05:57:42;18.10;99.90
52709;DHT22;38606;52.986;6.980;2022-07-09T06:00:08;18.30;99.90
52709;DHT22;38606;52.986;6.980;2022-07-09T06:02:34;18.10;99.90
52709;DHT22;38606;52.986;6.980;2022-07-09T06:05:00;18.20;99.90
52709;DHT22;38606;52.986;6.980;2022-07-09T06:07:25;18.30;99.90
52709;DHT22;38606;52.986;6.980;2022-07-09T06:09:51;18.20;99.90
52709;DHT22;38606;52.986;6.980;2022-07-09T06:12:17;18.40;99.90
52709;DHT22;38606;52.986;6.980;2022-07-09T06:14:42;18.50;99.90
52709;DHT22;38606;52.986;6.980;2022-07-09T06:17:08;18.50;99.90
52709;DHT22;38606;52.986;6.980;2022-07-09T06:19:34;18.50;99.90
52709;DHT22;38606;52.986;6.980;2022-07-09T06:22:00;18.30;99.90
52709;DHT22;38606;52.986;6.980;2022-07-09T06:24:26;18.40;99.90
52709;DHT22;38606;52.986;6.980;2022-07-09T06:26:52;18.70;99.90
52709;DHT22;38606;52.986;6.980;2022-07-09T06:29:19;18.40;99.90
52709;DHT22;38606;52.986;6.980;2022-07-09T06:31:44;18.80;99.90
52709;DHT22;38606;52.986;6.980;2022-07-09T06:34:10;18.70;99.90
52709;DHT22;38606;52.986;6.980;2022-07-09T06:36:38;18.60;99.90
52709;DHT22;38606;52.986;6.980;2022-07-09T06:39:04;18.50;99.90
52709;DHT22;38606;52.986;6.980;2022-07-09T06:41:48;18.80;99.90
52709;DHT22;38606;52.986;6.980;2022-07-09T06:44:14;18.60;99.90
52709;DHT22;38606;52.986;6.980;2022-07-09T06:46:40;18.70;99.90
52709;DHT22;38606;52.986;6.980;2022-07-09T06:49:05;18.90;99.90
52709;DHT22;38606;52.986;6.980;2022-07-09T06:51:32;18.70;99.90
52709;DHT22;38606;52.986;6.980;2022-07-09T06:53:58;18.80;99.90
52709;DHT22;38606;52.986;6.980;2022-07-09T06:56:23;18.50;99.90
52709;DHT22;38606;52.986;6.980;2022-07-09T06:58:49;18.90;99.90
52709;DHT22;38606;52.986;6.980;2022-07-09T07:01:15;19.00;99.90
52709;DHT22;38606;52.986;6.980;2022-07-09T07:03:40;19.00;99.90
52709;DHT22;38606;52.986;6.980;2022-07-09T07:06:07;18.90;99.90
52709;DHT22;38606;52.986;6.980;2022-07-09T07:08:33;19.00;99.90
52709;DHT22;38606;52.986;6.980;2022-07-09T07:10:59;18.80;99.90
52709;DHT22;38606;52.986;6.980;2022-07-09T07:13:25;19.10;99.90
52709;DHT22;38606;52.986;6.980;2022-07-09T07:15:51;18.80;99.90
52709;DHT22;38606;52.986;6.980;2022-07-09T07:18:16;19.20;99.90
52709;DHT22;38606;52.986;6.980;2022-07-09T07:20:43;19.20;99.90
52709;DHT22;38606;52.986;6.980;2022-07-09T07:23:09;19.30;99.90
52709;DHT22;38606;52.986;6.980;2022-07-09T07:25:34;19.30;99.90
52709;DHT22;38606;52.986;6.980;2022-07-09T07:28:00;19.10;99.90
52709;DHT22;38606;52.986;6.980;2022-07-09T07:30:27;19.00;99.90
52709;DHT22;38606;52.986;6.980;2022-07-09T07:32:53;18.90;99.90
52709;DHT22;38606;52.986;6.980;2022-07-09T07:35:19;19.20;99.90
52709;DHT22;38606;52.986;6.980;2022-07-09T07:37:45;18.90;99.90
52709;DHT22;38606;52.986;6.980;2022-07-09T07:40:11;19.20;99.90
52709;DHT22;38606;52.986;6.980;2022-07-09T07:42:37;19.40;99.90
52709;DHT22;38606;52.986;6.980;2022-07-09T07:45:03;19.20;99.90
52709;DHT22;38606;52.986;6.980;2022-07-09T07:47:29;19.40;99.90
52709;DHT22;38606;52.986;6.980;2022-07-09T07:49:54;19.70;99.90
52709;DHT22;38606;52.986;6.980;2022-07-09T07:52:20;19.50;99.90
52709;DHT22;38606;52.986;6.980;2022-07-09T07:54:46;19.60;99.90
52709;DHT22;38606;52.986;6.980;2022-07-09T07:57:11;19.80;99.90
52709;DHT22;38606;52.986;6.980;2022-07-09T07:59:37;20.00;99.90
52709;DHT22;38606;52.986;6.980;2022-07-09T08:02:03;19.80;99.90
52709;DHT22;38606;52.986;6.980;2022-07-09T08:04:29;20.30;99.90
52709;DHT22;38606;52.986;6.980;2022-07-09T08:06:54;20.60;99.90
52709;DHT22;38606;52.986;6.980;2022-07-09T08:09:20;20.80;99.90
52709;DHT22;38606;52.986;6.980;2022-07-09T08:11:46;20.70;99.90
52709;DHT22;38606;52.986;6.980;2022-07-09T08:14:12;20.90;99.90
52709;DHT22;38606;52.986;6.980;2022-07-09T08:16:37;20.90;99.90
52709;DHT22;38606;52.986;6.980;2022-07-09T08:19:03;21.20;99.90
52709;DHT22;38606;52.986;6.980;2022-07-09T08:21:29;21.20;99.90
52709;DHT22;38606;52.986;6.980;2022-07-09T08:23:54;21.20;99.90
52709;DHT22;38606;52.986;6.980;2022-07-09T08:26:25;21.30;99.90
52709;DHT22;38606;52.986;6.980;2022-07-09T08:28:51;21.10;99.90
52709;DHT22;38606;52.986;6.980;2022-07-09T08:31:18;21.30;99.90
52709;DHT22;38606;52.986;6.980;2022-07-09T08:33:43;20.90;99.90
52709;DHT22;38606;52.986;6.980;2022-07-09T08:36:09;21.50;99.90
52709;DHT22;38606;52.986;6.980;2022-07-09T08:38:36;21.20;99.90
52709;DHT22;38606;52.986;6.980;2022-07-09T08:41:03;23.50;99.90
52709;DHT22;38606;52.986;6.980;2022-07-09T08:43:33;21.20;99.90
52709;DHT22;38606;52.986;6.980;2022-07-09T08:45:59;21.80;99.90
52709;DHT22;38606;52.986;6.980;2022-07-09T08:48:25;22.00;99.90
52709;DHT22;38606;52.986;6.980;2022-07-09T08:50:52;21.70;99.90
52709;DHT22;38606;52.986;6.980;2022-07-09T08:53:18;22.10;99.90
52709;DHT22;38606;52.986;6.980;2022-07-09T08:55:45;21.80;99.90
52709;DHT22;38606;52.986;6.980;2022-07-09T08:58:14;21.90;99.90
52709;DHT22;38606;52.986;6.980;2022-07-09T09:00:41;22.30;99.90
52709;DHT22;38606;52.986;6.980;2022-07-09T09:03:07;21.90;99.90
52709;DHT22;38606;52.986;6.980;2022-07-09T09:05:32;22.10;99.90
52709;DHT22;38606;52.986;6.980;2022-07-09T09:07:58;21.90;99.90
52709;DHT22;38606;52.986;6.980;2022-07-09T09:10:28;21.90;99.90
52709;DHT22;38606;52.986;6.980;2022-07-09T09:13:01;22.10;99.90
52709;DHT22;38606;52.986;6.980;2022-07-09T09:15:27;21.90;99.90
52709;DHT22;38606;52.986;6.980;2022-07-09T09:17:53;22.10;99.90
52709;DHT22;38606;52.986;6.980;2022-07-09T09:20:20;22.30;99.90
52709;DHT22;38606;52.986;6.980;2022-07-09T09:22:53;22.20;99.90
52709;DHT22;38606;52.986;6.980;2022-07-09T09:25:25;22.20;99.90
52709;DHT22;38606;52.986;6.980;2022-07-09T09:27:55;22.30;99.90
52709;DHT22;38606;52.986;6.980;2022-07-09T09:30:22;22.30;99.90
52709;DHT22;38606;52.986;6.980;2022-07-09T09:32:58;22.40;99.90
52709;DHT22;38606;52.986;6.980;2022-07-09T09:35:29;22.40;99.90
52709;DHT22;38606;52.986;6.980;2022-07-09T09:37:55;22.20;99.90
52709;DHT22;38606;52.986;6.980;2022-07-09T09:40:22;22.50;99.90
52709;DHT22;38606;52.986;6.980;2022-07-09T09:42:49;22.70;99.90
52709;DHT22;38606;52.986;6.980;2022-07-09T09:45:16;22.90;99.90
52709;DHT22;38606;52.986;6.980;2022-07-09T09:47:49;23.10;99.90
52709;DHT22;38606;52.986;6.980;2022-07-09T09:50:23;23.10;99.90
52709;DHT22;38606;52.986;6.980;2022-07-09T09:52:51;23.40;99.90
52709;DHT22;38606;52.986;6.980;2022-07-09T09:55:18;23.10;99.90
52709;DHT22;38606;52.986;6.980;2022-07-09T09:57:45;23.20;99.90
52709;DHT22;38606;52.986;6.980;2022-07-09T10:00:13;23.00;99.90
52709;DHT22;38606;52.986;6.980;2022-07-09T10:02:43;23.10;99.90
52709;DHT22;38606;52.986;6.980;2022-07-09T10:05:09;22.70;99.90
52709;DHT22;38606;52.986;6.980;2022-07-09T10:07:35;22.70;99.90
52709;DHT22;38606;52.986;6.980;2022-07-09T10:10:00;22.60;99.90
52709;DHT22;38606;52.986;6.980;2022-07-09T10:12:30;22.50;99.90
52709;DHT22;38606;52.986;6.980;2022-07-09T10:14:58;22.60;99.90
52709;DHT22;38606;52.986;6.980;2022-07-09T10:17:25;22.50;99.90
52709;DHT22;38606;52.986;6.980;2022-07-09T10:19:52;22.30;99.90
52709;DHT22;38606;52.986;6.980;2022-07-09T10:22:18;22.40;99.90
52709;DHT22;38606;52.986;6.980;2022-07-09T10:24:45;22.70;99.90
52709;DHT22;38606;52.986;6.980;2022-07-09T10:27:12;22.80;99.90
52709;DHT22;38606;52.986;6.980;2022-07-09T10:29:58;22.90;99.90
52709;DHT22;38606;52.986;6.980;2022-07-09T10:32:32;22.60;99.90
52709;DHT22;38606;52.986;6.980;2022-07-09T10:40:08;22.30;99.90
52709;DHT22;38606;52.986;6.980;2022-07-09T10:42:35;22.50;99.90
52709;DHT22;38606;52.986;6.980;2022-07-09T10:45:01;22.60;99.90
52709;DHT22;38606;52.986;6.980;2022-07-09T10:47:37;22.50;99.90
52709;DHT22;38606;52.986;6.980;2022-07-09T10:50:04;22.80;99.90
52709;DHT22;38606;52.986;6.980;2022-07-09T10:52:30;22.80;99.90
52709;DHT22;38606;52.986;6.980;2022-07-09T10:54:56;22.80;99.90
52709;DHT22;38606;52.986;6.980;2022-07-09T10:57:22;23.10;99.90
52709;DHT22;38606;52.986;6.980;2022-07-09T10:59:47;23.20;99.90
52709;DHT22;38606;52.986;6.980;2022-07-09T11:02:23;23.30;99.90
52709;DHT22;38606;52.986;6.980;2022-07-09T11:04:50;23.60;99.90
52709;DHT22;38606;52.986;6.980;2022-07-09T11:07:34;23.60;99.90
52709;DHT22;38606;52.986;6.980;2022-07-09T11:10:01;23.80;99.90
52709;DHT22;38606;52.986;6.980;2022-07-09T11:12:27;23.60;99.90
52709;DHT22;38606;52.986;6.980;2022-07-09T11:14:52;23.70;99.90
52709;DHT22;38606;52.986;6.980;2022-07-09T11:17:20;23.50;99.90
52709;DHT22;38606;52.986;6.980;2022-07-09T11:19:47;23.50;99.90
52709;DHT22;38606;52.986;6.980;2022-07-09T11:22:15;23.20;99.90
52709;DHT22;38606;52.986;6.980;2022-07-09T11:24:41;23.20;99.90
52709;DHT22;38606;52.986;6.980;2022-07-09T11:27:08;23.10;99.90
52709;DHT22;38606;52.986;6.980;2022-07-09T11:29:34;23.20;99.90
52709;DHT22;38606;52.986;6.980;2022-07-09T11:32:00;23.20;99.90
52709;DHT22;38606;52.986;6.980;2022-07-09T11:34:27;23.10;99.90
52709;DHT22;38606;52.986;6.980;2022-07-09T11:36:55;22.80;99.90
52709;DHT22;38606;52.986;6.980;2022-07-09T11:39:31;24.00;99.90
52709;DHT22;38606;52.986;6.980;2022-07-09T11:42:00;22.00;99.90
52709;DHT22;38606;52.986;6.980;2022-07-09T11:44:27;21.70;99.90
52709;DHT22;38606;52.986;6.980;2022-07-09T11:49:39;21.60;99.90
52709;DHT22;38606;52.986;6.980;2022-07-09T11:57:24;21.60;99.90
52709;DHT22;38606;52.986;6.980;2022-07-09T11:59:50;21.70;99.90
52709;DHT22;38606;52.986;6.980;2022-07-09T12:02:31;21.60;99.90
52709;DHT22;38606;52.986;6.980;2022-07-09T12:04:58;21.50;99.90
52709;DHT22;38606;52.986;6.980;2022-07-09T12:07:25;21.70;99.90
52709;DHT22;38606;52.986;6.980;2022-07-09T12:12:24;21.70;99.90
52709;DHT22;38606;52.986;6.980;2022-07-09T12:14:49;21.70;99.90
52709;DHT22;38606;52.986;6.980;2022-07-09T12:17:34;21.60;99.90
52709;DHT22;38606;52.986;6.980;2022-07-09T12:19:59;21.60;99.90
52709;DHT22;38606;52.986;6.980;2022-07-09T12:22:26;21.60;99.90
52709;DHT22;38606;52.986;6.980;2022-07-09T12:24:52;21.70;99.90
52709;DHT22;38606;52.986;6.980;2022-07-09T12:27:19;21.80;99.90
52709;DHT22;38606;52.986;6.980;2022-07-09T12:29:48;22.00;99.90
52709;DHT22;38606;52.986;6.980;2022-07-09T12:32:14;22.10;99.90
52709;DHT22;38606;52.986;6.980;2022-07-09T12:34:39;22.30;99.90
52709;DHT22;38606;52.986;6.980;2022-07-09T12:37:05;22.50;99.90
52709;DHT22;38606;52.986;6.980;2022-07-09T12:39:31;22.30;99.90
52709;DHT22;38606;52.986;6.980;2022-07-09T12:41:57;22.20;99.90
52709;DHT22;38606;52.986;6.980;2022-07-09T12:44:24;22.10;99.90
52709;DHT22;38606;52.986;6.980;2022-07-09T12:46:51;22.20;99.90
52709;DHT22;38606;52.986;6.980;2022-07-09T12:49:17;22.00;99.90
52709;DHT22;38606;52.986;6.980;2022-07-09T12:51:43;22.30;99.90
52709;DHT22;38606;52.986;6.980;2022-07-09T12:54:09;22.30;99.90
52709;DHT22;38606;52.986;6.980;2022-07-09T12:56:35;22.50;99.90
52709;DHT22;38606;52.986;6.980;2022-07-09T12:59:02;22.30;99.90
52709;DHT22;38606;52.986;6.980;2022-07-09T13:01:27;22.60;99.90
52709;DHT22;38606;52.986;6.980;2022-07-09T13:03:53;22.40;99.90
52709;DHT22;38606;52.986;6.980;2022-07-09T13:06:19;22.20;99.90
52709;DHT22;38606;52.986;6.980;2022-07-09T13:09:00;22.10;99.90
52709;DHT22;38606;52.986;6.980;2022-07-09T13:11:26;22.40;99.90
52709;DHT22;38606;52.986;6.980;2022-07-09T13:13:52;21.80;99.90
52709;DHT22;38606;52.986;6.980;2022-07-09T13:16:17;22.40;99.90
52709;DHT22;38606;52.986;6.980;2022-07-09T13:18:43;20.90;99.90
52709;DHT22;38606;52.986;6.980;2022-07-09T13:21:09;22.50;99.90
52709;DHT22;38606;52.986;6.980;2022-07-09T13:23:35;22.40;99.90
52709;DHT22;38606;52.986;6.980;2022-07-09T13:26:01;22.60;99.90
52709;DHT22;38606;52.986;6.980;2022-07-09T13:28:27;22.20;99.90
52709;DHT22;38606;52.986;6.980;2022-07-09T13:30:53;22.40;99.90
52709;DHT22;38606;52.986;6.980;2022-07-09T13:33:18;22.30;99.90
52709;DHT22;38606;52.986;6.980;2022-07-09T13:35:45;22.00;99.90
52709;DHT22;38606;52.986;6.980;2022-07-09T13:38:10;21.80;99.90
52709;DHT22;38606;52.986;6.980;2022-07-09T13:40:36;21.80;99.90
52709;DHT22;38606;52.986;6.980;2022-07-09T13:43:02;21.70;99.90
52709;DHT22;38606;52.986;6.980;2022-07-09T13:45:28;21.80;99.90
52709;DHT22;38606;52.986;6.980;2022-07-09T13:47:54;21.70;99.90
52709;DHT22;38606;52.986;6.980;2022-07-09T13:50:20;21.70;99.90
52709;DHT22;38606;52.986;6.980;2022-07-09T13:52:49;21.50;99.90
52709;DHT22;38606;52.986;6.980;2022-07-09T13:55:15;21.70;99.90
52709;DHT22;38606;52.986;6.980;2022-07-09T13:57:41;21.90;99.90
52709;DHT22;38606;52.986;6.980;2022-07-09T14:00:07;21.70;99.90
52709;DHT22;38606;52.986;6.980;2022-07-09T14:02:34;21.60;99.90
52709;DHT22;38606;52.986;6.980;2022-07-09T14:05:03;21.20;99.90
52709;DHT22;38606;52.986;6.980;2022-07-09T14:07:30;21.80;99.90
52709;DHT22;38606;52.986;6.980;2022-07-09T14:09:55;21.20;99.90
52709;DHT22;38606;52.986;6.980;2022-07-09T14:12:22;21.40;99.90
52709;DHT22;38606;52.986;6.980;2022-07-09T14:14:50;21.60;99.90
52709;DHT22;38606;52.986;6.980;2022-07-09T14:17:16;21.30;99.90
52709;DHT22;38606;52.986;6.980;2022-07-09T14:19:42;21.70;99.90
52709;DHT22;38606;52.986;6.980;2022-07-09T14:22:08;21.50;99.90
52709;DHT22;38606;52.986;6.980;2022-07-09T14:24:34;21.70;99.90
52709;DHT22;38606;52.986;6.980;2022-07-09T14:27:00;21.20;99.90
52709;DHT22;38606;52.986;6.980;2022-07-09T14:29:26;21.20;99.90
52709;DHT22;38606;52.986;6.980;2022-07-09T14:31:52;21.10;99.90
52709;DHT22;38606;52.986;6.980;2022-07-09T14:34:18;21.10;99.90
52709;DHT22;38606;52.986;6.980;2022-07-09T14:36:44;21.10;99.90
52709;DHT22;38606;52.986;6.980;2022-07-09T14:39:09;20.90;99.90
52709;DHT22;38606;52.986;6.980;2022-07-09T14:41:35;20.90;99.90
52709;DHT22;38606;52.986;6.980;2022-07-09T14:44:03;21.00;99.90
52709;DHT22;38606;52.986;6.980;2022-07-09T14:46:29;20.80;99.90
52709;DHT22;38606;52.986;6.980;2022-07-09T14:48:54;20.70;99.90
52709;DHT22;38606;52.986;6.980;2022-07-09T14:51:20;21.00;99.90
52709;DHT22;38606;52.986;6.980;2022-07-09T14:53:46;20.60;99.90
52709;DHT22;38606;52.986;6.980;2022-07-09T14:56:12;20.70;99.90
52709;DHT22;38606;52.986;6.980;2022-07-09T14:58:38;20.60;99.90
52709;DHT22;38606;52.986;6.980;2022-07-09T15:01:05;20.50;99.90
52709;DHT22;38606;52.986;6.980;2022-07-09T15:03:30;20.70;99.90
52709;DHT22;38606;52.986;6.980;2022-07-09T15:05:56;20.60;99.90
52709;DHT22;38606;52.986;6.980;2022-07-09T15:08:22;20.70;99.90
52709;DHT22;38606;52.986;6.980;2022-07-09T15:10:48;20.60;99.90
52709;DHT22;38606;52.986;6.980;2022-07-09T15:13:14;20.80;99.90
52709;DHT22;38606;52.986;6.980;2022-07-09T15:15:40;20.60;99.90
52709;DHT22;38606;52.986;6.980;2022-07-09T15:18:06;20.40;99.90
52709;DHT22;38606;52.986;6.980;2022-07-09T15:20:32;20.70;99.90
52709;DHT22;38606;52.986;6.980;2022-07-09T15:22:59;20.60;99.90
52709;DHT22;38606;52.986;6.980;2022-07-09T15:25:26;20.60;99.90
52709;DHT22;38606;52.986;6.980;2022-07-09T15:27:52;20.40;99.90
52709;DHT22;38606;52.986;6.980;2022-07-09T15:30:18;20.20;99.90
52709;DHT22;38606;52.986;6.980;2022-07-09T15:32:48;20.40;99.90
52709;DHT22;38606;52.986;6.980;2022-07-09T15:35:14;20.40;99.90
52709;DHT22;38606;52.986;6.980;2022-07-09T15:37:40;20.30;99.90
52709;DHT22;38606;52.986;6.980;2022-07-09T15:40:07;20.30;99.90
52709;DHT22;38606;52.986;6.980;2022-07-09T15:42:33;20.30;99.90